createdAt,value
2019-03-16T02:06:16.331Z,9.50
2019-03-16T02:08:45.406Z,8.10
2019-03-16T02:11:14.491Z,8.03
2019-03-16T02:13:43.572Z,5.80
2019-03-16T02:16:12.593Z,5.80
2019-03-16T02:18:41.634Z,6.07
2019-03-16T02:21:10.654Z,6.83
2019-03-16T02:23:39.682Z,5.50
2019-03-16T02:26:08.750Z,6.80
2019-03-16T02:28:37.764Z,8.53
2019-03-16T02:31:06.890Z,4.47
2019-03-16T02:33:35.929Z,5.77
2019-03-16T02:36:04.943Z,7.00
2019-03-16T02:38:33.977Z,5.53
2019-03-16T02:41:02.992Z,6.40
2019-03-16T02:43:32.037Z,3.80
2019-03-16T02:46:01.048Z,5.00
2019-03-16T02:48:30.109Z,5.57
2019-03-16T02:50:59.105Z,7.87
2019-03-16T02:53:28.211Z,6.27
2019-03-16T02:55:57.235Z,8.57
2019-03-16T02:58:26.298Z,10.57
2019-03-16T03:00:55.289Z,7.03
2019-03-16T03:03:29.888Z,8.30
2019-03-16T03:05:55.083Z,8.00
2019-03-16T03:08:24.117Z,11.10
2019-03-16T03:10:53.224Z,9.70
2019-03-16T03:13:22.302Z,6.03
2019-03-16T03:15:51.340Z,9.10
2019-03-16T03:18:20.431Z,7.60
2019-03-16T03:20:49.476Z,6.97
2019-03-16T03:23:18.487Z,11.87
2019-03-16T03:25:47.515Z,6.33
2019-03-16T03:28:16.662Z,9.37
2019-03-16T03:30:45.654Z,11.07
2019-03-16T03:33:15.027Z,6.30
2019-03-16T03:35:44.173Z,6.00
2019-03-16T03:38:13.289Z,6.47
2019-03-16T03:40:42.511Z,9.30
2019-03-16T03:43:11.528Z,8.53
2019-03-16T03:45:40.588Z,10.30
2019-03-16T03:48:09.667Z,7.57
2019-03-16T03:50:38.746Z,9.03
2019-03-16T03:53:07.740Z,10.00
2019-03-16T03:55:36.818Z,6.13
2019-03-16T03:58:05.870Z,6.50
2019-03-16T04:00:35.010Z,7.23
2019-03-16T04:03:04.040Z,6.50
2019-03-16T04:05:33.088Z,5.30
2019-03-16T04:08:02.101Z,5.73
2019-03-16T04:10:31.411Z,10.57
2019-03-16T04:13:00.487Z,7.70
2019-03-16T04:15:29.551Z,8.97
2019-03-16T04:17:58.601Z,10.10
2019-03-16T04:20:27.669Z,13.30
2019-03-16T04:22:56.748Z,6.60
2019-03-16T04:25:25.818Z,9.20
2019-03-16T04:27:54.918Z,8.47
2019-03-16T04:30:23.977Z,12.90
2019-03-16T04:32:53.043Z,11.40
2019-03-16T04:35:22.141Z,7.70
2019-03-16T04:37:51.175Z,6.57
2019-03-16T04:40:20.271Z,9.80
2019-03-16T04:42:49.322Z,5.07
2019-03-16T04:45:18.462Z,8.87
2019-03-16T04:47:47.550Z,10.27
2019-03-16T04:50:16.666Z,5.70
2019-03-16T04:52:45.736Z,3.57
2019-03-16T04:55:14.826Z,7.87
2019-03-16T04:57:43.921Z,5.50
2019-03-16T05:00:13.023Z,3.40
2019-03-16T05:02:42.042Z,3.73
2019-03-16T05:05:11.166Z,3.83
2019-03-16T05:07:40.245Z,3.03
2019-03-16T05:10:09.360Z,4.67
2019-03-16T05:12:38.410Z,2.60
2019-03-16T05:15:07.611Z,4.93
2019-03-16T05:17:36.710Z,2.60
2019-03-16T05:20:06.341Z,2.53
2019-03-16T05:22:35.335Z,2.70
2019-03-16T05:25:04.452Z,3.77
2019-03-16T05:27:33.513Z,3.03
2019-03-16T05:30:02.574Z,2.47
2019-03-16T05:32:31.665Z,2.50
2019-03-16T05:35:03.217Z,2.37
2019-03-16T05:37:32.500Z,3.93
2019-03-16T05:40:01.583Z,2.40
2019-03-16T05:42:30.717Z,2.17
2019-03-16T05:44:59.763Z,3.23
2019-03-16T05:47:28.856Z,3.27
2019-03-16T05:49:57.948Z,3.77
2019-03-16T05:52:27.109Z,3.00
2019-03-16T05:54:56.247Z,2.60
2019-03-16T05:57:25.306Z,3.67
2019-03-16T05:59:54.348Z,3.20
2019-03-16T06:02:23.451Z,2.77
2019-03-16T06:04:52.594Z,2.20
2019-03-16T06:07:21.636Z,4.80
2019-03-16T06:09:50.701Z,2.67
2019-03-16T06:12:19.794Z,2.73
2019-03-16T06:14:48.859Z,2.23
2019-03-16T06:17:18.003Z,2.50
2019-03-16T06:19:47.103Z,2.30
2019-03-16T06:22:16.170Z,3.40
2019-03-16T06:24:45.201Z,5.30
2019-03-16T06:27:14.315Z,5.63
2019-03-16T06:29:43.431Z,2.80
2019-03-16T06:32:12.523Z,2.30
2019-03-16T06:34:41.603Z,2.70
2019-03-16T06:37:10.873Z,2.20
2019-03-16T06:39:39.954Z,2.23
2019-03-16T06:42:09.039Z,2.10
2019-03-16T06:44:38.087Z,1.90
2019-03-16T06:47:07.155Z,2.07
2019-03-16T06:49:36.240Z,1.93
2019-03-16T06:52:07.435Z,2.00
2019-03-16T06:54:36.131Z,2.20
2019-03-16T06:57:05.299Z,2.37
2019-03-16T06:59:34.397Z,2.23
2019-03-16T07:02:03.491Z,2.60
2019-03-16T07:04:32.573Z,6.00
2019-03-16T07:07:01.755Z,2.10
2019-03-16T07:09:30.860Z,1.90
2019-03-16T07:11:59.898Z,2.47
2019-03-16T07:14:29.038Z,2.43
2019-03-16T07:17:02.387Z,2.33
2019-03-16T07:19:29.023Z,2.70
2019-03-16T07:21:58.030Z,3.80
2019-03-16T07:24:27.125Z,4.37
2019-03-16T07:26:56.236Z,3.97
2019-03-16T07:29:25.311Z,4.47
2019-03-16T07:31:54.363Z,4.40
2019-03-16T07:34:23.478Z,4.40
2019-03-16T07:36:52.604Z,4.63
2019-03-16T07:39:21.707Z,4.60
2019-03-16T07:41:50.814Z,4.17
2019-03-16T07:44:20.029Z,3.77
2019-03-16T07:46:49.100Z,3.90
2019-03-16T07:49:18.247Z,4.17
2019-03-16T07:51:47.539Z,3.90
2019-03-16T07:54:16.970Z,3.37
2019-03-16T07:56:46.242Z,3.33
2019-03-16T07:59:15.466Z,3.00
2019-03-16T08:01:44.606Z,2.40
2019-03-16T08:04:13.684Z,2.60
2019-03-16T08:06:42.999Z,2.40
2019-03-16T08:09:12.180Z,1.93
2019-03-16T08:11:41.263Z,2.13
2019-03-16T08:14:10.300Z,1.40
2019-03-16T08:16:39.454Z,1.60
2019-03-16T08:19:08.499Z,2.13
2019-03-16T08:21:37.537Z,1.50
2019-03-16T08:24:06.556Z,0.80
2019-03-16T08:26:35.606Z,0.83
2019-03-16T08:29:04.696Z,2.30
2019-03-16T08:31:33.714Z,1.23
2019-03-16T08:34:02.871Z,1.77
2019-03-16T08:36:32.010Z,1.50
2019-03-16T08:39:01.054Z,2.23
2019-03-16T08:41:30.131Z,1.73
2019-03-16T08:43:59.225Z,2.63
2019-03-16T08:46:28.318Z,1.50
2019-03-16T08:48:57.391Z,1.87
2019-03-16T08:51:26.483Z,2.30
2019-03-16T08:53:55.532Z,1.73
2019-03-16T08:56:24.707Z,2.63
2019-03-16T08:58:53.674Z,1.27
2019-03-16T09:01:22.714Z,2.53
2019-03-16T09:03:51.887Z,1.83
2019-03-16T09:06:21.021Z,2.53
2019-03-16T09:08:50.104Z,2.20
2019-03-16T09:11:19.238Z,2.83
2019-03-16T09:13:48.264Z,2.27
2019-03-16T09:16:17.542Z,1.83
2019-03-16T09:18:47.792Z,4.00
2019-03-16T09:21:16.961Z,3.90
2019-03-16T09:23:46.063Z,2.33
2019-03-16T09:26:15.129Z,3.33
2019-03-16T09:28:44.238Z,1.90
2019-03-16T09:31:13.376Z,3.87
2019-03-16T09:33:42.406Z,2.07
2019-03-16T09:36:11.488Z,4.30
2019-03-16T09:38:40.599Z,2.47
2019-03-16T09:41:09.677Z,2.60
2019-03-16T09:43:38.743Z,4.17
2019-03-16T09:46:07.869Z,2.43
2019-03-16T09:48:37.050Z,2.80
2019-03-16T09:51:06.277Z,2.70
2019-03-16T09:53:35.435Z,2.67
2019-03-16T09:56:04.454Z,2.30
2019-03-16T09:58:33.487Z,2.30
2019-03-16T10:01:02.609Z,2.20
2019-03-16T10:03:31.713Z,1.80
2019-03-16T10:06:00.814Z,2.47
2019-03-16T10:08:29.889Z,1.50
2019-03-16T10:10:59.132Z,1.60
2019-03-16T10:13:28.194Z,3.63
2019-03-16T10:15:57.234Z,1.93
2019-03-16T10:18:26.287Z,1.73
2019-03-16T10:20:55.390Z,3.37
2019-03-16T10:23:24.419Z,2.97
2019-03-16T10:25:53.561Z,3.27
2019-03-16T10:28:22.594Z,2.63
2019-03-16T10:30:51.719Z,1.53
2019-03-16T10:33:20.772Z,2.17
2019-03-16T10:35:49.862Z,1.33
2019-03-16T10:38:18.852Z,1.10
2019-03-16T10:40:47.955Z,1.90
2019-03-16T10:43:17.067Z,1.87
2019-03-16T10:45:46.136Z,1.43
2019-03-16T10:48:15.186Z,3.40
2019-03-16T10:50:44.295Z,2.20
2019-03-16T10:53:13.351Z,1.10
2019-03-16T10:55:42.533Z,3.33
2019-03-16T10:58:11.657Z,2.50
2019-03-16T11:00:40.881Z,1.00
2019-03-16T11:03:10.186Z,3.00
2019-03-16T11:05:39.280Z,1.63
2019-03-16T11:08:08.363Z,2.30
2019-03-16T11:10:37.631Z,1.33
2019-03-16T11:13:06.801Z,0.90
2019-03-16T11:15:35.896Z,2.80
2019-03-16T11:18:05.023Z,1.37
2019-03-16T11:20:34.171Z,3.03
2019-03-16T11:23:03.629Z,2.10
2019-03-16T11:25:35.559Z,2.47
2019-03-16T11:28:04.652Z,1.00
2019-03-16T11:30:33.706Z,1.50
2019-03-16T11:33:02.801Z,3.97
2019-03-16T11:35:31.880Z,0.90
2019-03-16T11:38:01.093Z,5.63
2019-03-16T11:40:30.286Z,3.87
2019-03-16T11:42:59.447Z,2.73
2019-03-16T11:45:28.713Z,0.93
2019-03-16T11:47:57.804Z,1.67
2019-03-16T11:50:26.909Z,3.87
2019-03-16T11:52:55.946Z,1.50
2019-03-16T11:55:35.870Z,2.03
2019-03-16T11:58:07.932Z,1.43
2019-03-16T12:00:37.051Z,3.53
2019-03-16T12:03:06.205Z,4.13
2019-03-16T12:05:35.248Z,3.23
2019-03-16T12:08:04.432Z,1.67
2019-03-16T12:10:33.563Z,1.40
2019-03-16T12:13:02.699Z,1.87
2019-03-16T12:15:31.824Z,2.27
2019-03-16T12:18:00.941Z,1.50
2019-03-16T12:20:30.055Z,1.47
2019-03-16T12:22:59.173Z,1.70
2019-03-16T12:25:28.525Z,2.00
2019-03-16T12:27:57.640Z,3.83
2019-03-16T12:30:26.704Z,1.33
2019-03-16T12:32:55.829Z,0.70
2019-03-16T12:35:24.916Z,1.57
2019-03-16T12:37:54.112Z,1.40
2019-03-16T12:40:23.261Z,1.57
2019-03-16T12:42:52.365Z,1.67
2019-03-16T12:45:21.438Z,0.93
2019-03-16T12:47:50.536Z,3.97
2019-03-16T12:50:19.583Z,1.90
2019-03-16T12:52:48.780Z,2.87
2019-03-16T12:55:17.945Z,3.03
2019-03-16T12:57:48.171Z,8.07
2019-03-16T13:00:17.527Z,1.97
2019-03-16T13:02:46.637Z,1.67
2019-03-16T13:05:15.937Z,3.27
2019-03-16T13:07:45.106Z,1.73
2019-03-16T13:10:14.741Z,1.90
2019-03-16T13:12:44.198Z,3.57
2019-03-16T13:15:13.320Z,1.60
2019-03-16T13:17:42.530Z,1.07
2019-03-16T13:20:12.031Z,1.10
2019-03-16T13:22:42.025Z,2.70
2019-03-16T13:25:11.343Z,1.30
2019-03-16T13:27:40.343Z,1.80
2019-03-16T13:30:10.642Z,2.90
2019-03-16T13:32:39.937Z,2.23
2019-03-16T13:35:09.110Z,2.67
2019-03-16T13:37:38.202Z,1.33
2019-03-16T13:40:08.309Z,3.73
2019-03-16T13:42:37.497Z,1.83
2019-03-16T13:45:06.904Z,2.47
2019-03-16T13:47:35.988Z,1.30
2019-03-16T13:51:11.630Z,1.30
2019-03-16T13:53:12.169Z,2.33
2019-03-16T13:55:41.634Z,1.47
2019-03-16T13:58:11.001Z,2.27
2019-03-16T14:00:40.146Z,3.43
2019-03-16T14:03:09.389Z,2.63
2019-03-16T14:05:38.485Z,2.80
2019-03-16T14:08:07.634Z,1.73
2019-03-16T14:10:36.939Z,2.00
2019-03-16T14:13:06.035Z,1.00
2019-03-16T14:15:35.305Z,0.80
2019-03-16T14:18:04.521Z,4.00
2019-03-16T14:20:33.839Z,1.70
2019-03-16T14:23:03.280Z,1.50
2019-03-16T14:25:32.901Z,1.33
2019-03-16T14:28:02.173Z,1.97
2019-03-16T14:30:40.953Z,1.50
2019-03-16T14:33:02.466Z,1.73
2019-03-16T14:35:31.688Z,1.00
2019-03-16T14:38:00.805Z,1.67
2019-03-16T14:40:29.971Z,1.30
2019-03-16T14:42:59.218Z,2.43
2019-03-16T14:45:28.714Z,4.23
2019-03-16T14:47:57.741Z,3.93
2019-03-16T14:50:26.944Z,1.43
2019-03-16T14:52:55.998Z,2.00
2019-03-16T14:55:25.054Z,1.33
2019-03-16T14:57:54.151Z,3.30
2019-03-16T15:00:23.155Z,1.33
2019-03-16T15:02:52.226Z,1.53
2019-03-16T15:05:21.269Z,3.60
2019-03-16T15:07:50.539Z,2.93
2019-03-16T15:10:19.668Z,5.50
2019-03-16T15:12:48.842Z,2.23
2019-03-16T15:15:17.914Z,1.47
2019-03-16T15:17:47.113Z,3.53
2019-03-16T15:20:16.192Z,4.97
2019-03-16T15:22:45.307Z,2.00
2019-03-16T15:25:14.475Z,3.50
2019-03-16T15:27:43.583Z,1.07
2019-03-16T15:30:13.885Z,1.77
2019-03-16T15:32:43.070Z,0.70
2019-03-16T15:35:12.245Z,1.27
2019-03-16T15:37:42.572Z,1.67
2019-03-16T15:40:11.713Z,1.80
2019-03-16T15:42:40.831Z,2.57
2019-03-16T15:45:12.489Z,1.10
2019-03-16T15:47:41.602Z,0.93
2019-03-16T15:50:10.725Z,2.00
2019-03-16T15:52:39.774Z,3.10
2019-03-16T15:55:08.946Z,1.20
2019-03-16T15:57:38.010Z,2.73
2019-03-16T16:00:07.715Z,2.70
2019-03-16T16:02:36.752Z,1.97
2019-03-16T16:05:06.321Z,1.50
2019-03-16T16:07:35.557Z,2.03
2019-03-16T16:10:05.201Z,1.23
2019-03-16T16:12:34.340Z,4.13
2019-03-16T16:15:03.588Z,1.30
2019-03-16T16:17:32.736Z,1.60
2019-03-16T16:20:01.912Z,3.23
2019-03-16T16:22:30.987Z,2.70
2019-03-16T16:25:00.481Z,3.30
2019-03-16T16:27:29.595Z,3.57
2019-03-16T16:29:58.611Z,2.17
2019-03-16T16:32:28.824Z,3.60
2019-03-16T16:34:57.972Z,2.63
2019-03-16T16:37:27.288Z,2.90
2019-03-16T16:39:58.427Z,2.33
2019-03-16T16:42:41.072Z,3.87
2019-03-16T16:45:10.580Z,3.57
2019-03-16T16:47:39.630Z,2.77
2019-03-16T16:50:10.633Z,6.60
2019-03-16T16:52:39.673Z,2.83
2019-03-16T16:55:08.811Z,1.97
2019-03-16T16:57:37.938Z,3.63
2019-03-16T17:00:09.778Z,2.50
2019-03-16T17:02:38.832Z,1.53
2019-03-16T17:05:08.312Z,2.37
2019-03-16T17:07:37.360Z,2.93
2019-03-16T17:10:07.004Z,2.00
2019-03-16T17:12:36.089Z,5.80
2019-03-16T17:15:05.640Z,3.13
2019-03-16T17:17:35.718Z,2.90
2019-03-16T17:20:05.065Z,3.40
2019-03-16T17:22:37.219Z,3.13
2019-03-16T17:25:05.429Z,3.67
2019-03-16T17:27:34.482Z,1.70
2019-03-16T17:30:03.622Z,2.83
2019-03-16T17:32:32.762Z,1.63
2019-03-16T17:35:02.664Z,1.90
2019-03-16T17:37:31.912Z,4.13
2019-03-16T17:40:01.827Z,2.20
2019-03-16T17:42:30.953Z,5.33
2019-03-16T17:45:00.008Z,2.03
2019-03-16T17:47:29.073Z,1.93
2019-03-16T17:49:58.190Z,2.07
2019-03-16T17:52:27.312Z,2.20
2019-03-16T17:54:56.517Z,2.43
2019-03-16T17:57:27.814Z,1.70
2019-03-16T17:59:56.897Z,2.40
2019-03-16T18:02:26.017Z,2.03
2019-03-16T18:04:55.101Z,2.90
2019-03-16T18:07:24.281Z,2.70
2019-03-16T18:09:53.394Z,2.53
2019-03-16T18:12:22.620Z,6.23
2019-03-16T18:14:51.696Z,3.70
2019-03-16T18:17:20.765Z,4.07
2019-03-16T18:19:50.011Z,2.27
2019-03-16T18:22:19.154Z,7.87
2019-03-16T18:24:48.215Z,12.20
2019-03-16T18:27:17.303Z,5.97
2019-03-16T18:29:46.376Z,3.33
2019-03-16T18:32:15.633Z,5.13
2019-03-16T18:34:44.804Z,7.63
2019-03-16T18:37:14.025Z,2.50
2019-03-16T18:39:43.244Z,2.03
2019-03-16T18:42:12.272Z,2.73
2019-03-16T18:44:41.654Z,3.63
2019-03-16T18:47:10.767Z,7.90
2019-03-16T18:49:39.858Z,6.93
2019-03-16T18:52:09.864Z,3.83
2019-03-16T18:54:39.010Z,4.13
2019-03-16T18:57:08.382Z,3.40
2019-03-16T18:59:37.473Z,5.73
2019-03-16T19:02:06.656Z,4.90
2019-03-16T19:04:35.703Z,4.70
2019-03-16T19:07:04.821Z,2.83
2019-03-16T19:09:34.069Z,2.50
2019-03-16T19:12:03.317Z,5.13
2019-03-16T19:14:32.559Z,3.33
2019-03-16T19:17:01.678Z,3.33
2019-03-16T19:19:30.779Z,3.30
2019-03-16T19:21:59.861Z,3.67
2019-03-16T19:24:28.988Z,4.63
2019-03-16T19:26:58.082Z,3.10
2019-03-16T19:29:27.167Z,2.80
2019-03-16T19:31:56.317Z,4.30
2019-03-16T19:34:25.369Z,4.57
2019-03-16T19:36:54.491Z,3.50
2019-03-16T19:39:25.080Z,2.90
2019-03-16T19:41:54.563Z,3.13
2019-03-16T19:44:23.763Z,4.13
2019-03-16T19:46:52.889Z,4.07
2019-03-16T19:49:22.058Z,5.53
2019-03-16T19:51:51.127Z,4.60
2019-03-16T19:54:20.285Z,2.70
2019-03-16T19:56:49.404Z,3.57
2019-03-16T19:59:18.442Z,6.10
2019-03-16T20:01:47.486Z,5.70
2019-03-16T20:04:16.541Z,4.83
2019-03-16T20:06:45.602Z,5.33
2019-03-16T20:09:15.460Z,5.57
2019-03-16T20:11:44.557Z,4.50
2019-03-16T20:14:13.636Z,5.83
2019-03-16T20:16:42.723Z,3.97
2019-03-16T20:19:11.784Z,4.53
2019-03-16T20:21:40.828Z,3.57
2019-03-16T20:24:09.897Z,3.50
2019-03-16T20:26:38.997Z,5.37
2019-03-16T20:29:08.175Z,4.00
2019-03-16T20:31:46.352Z,3.10
2019-03-16T20:34:08.031Z,5.00
2019-03-16T20:36:37.068Z,3.73
2019-03-16T20:39:07.902Z,3.50
2019-03-16T20:41:36.960Z,5.27
2019-03-16T20:44:06.314Z,4.07
2019-03-16T20:46:35.500Z,3.30
2019-03-16T20:49:04.492Z,3.00
2019-03-16T20:51:33.575Z,7.53
2019-03-16T20:54:02.635Z,8.67
2019-03-16T20:56:31.653Z,3.80
2019-03-16T20:59:00.719Z,4.17
2019-03-16T21:01:29.866Z,4.97
2019-03-16T21:03:58.986Z,2.10
2019-03-16T21:06:28.069Z,1.97
2019-03-16T21:09:03.095Z,3.50
2019-03-16T21:11:30.833Z,3.93
2019-03-16T21:14:00.063Z,2.80
2019-03-16T21:16:29.107Z,3.10
2019-03-16T21:19:01.208Z,3.20
2019-03-16T21:21:30.341Z,4.60
2019-03-16T21:23:59.426Z,5.47
2019-03-16T21:26:28.562Z,2.77
2019-03-16T21:28:57.621Z,4.40
2019-03-16T21:31:26.768Z,5.87
2019-03-16T21:33:57.835Z,6.47
2019-03-16T21:36:26.864Z,1.93
2019-03-16T21:38:55.916Z,3.87
2019-03-16T21:41:24.921Z,2.67
2019-03-16T21:43:53.978Z,2.57
2019-03-16T21:46:23.222Z,2.33
2019-03-16T21:48:52.736Z,4.17
2019-03-16T21:51:21.808Z,3.17
2019-03-16T21:53:50.872Z,2.67
2019-03-16T21:56:19.954Z,2.00
2019-03-16T21:58:49.026Z,4.03
2019-03-16T22:01:18.105Z,2.10
2019-03-16T22:03:47.155Z,3.37
2019-03-16T22:06:16.343Z,2.73
2019-03-16T22:08:45.467Z,2.13
2019-03-16T22:11:14.537Z,3.17
2019-03-16T22:13:43.651Z,5.07
2019-03-16T22:16:12.705Z,4.13
2019-03-16T22:18:41.787Z,2.40
2019-03-16T22:21:10.803Z,3.33
2019-03-16T22:23:39.791Z,3.23
2019-03-16T22:26:08.878Z,2.50
2019-03-16T22:28:37.844Z,4.53
2019-03-16T22:31:06.894Z,2.60
2019-03-16T22:33:35.921Z,3.40
2019-03-16T22:36:04.977Z,2.90
2019-03-16T22:38:33.974Z,4.13
2019-03-16T22:41:03.031Z,3.47
2019-03-16T22:43:32.061Z,2.13
2019-03-16T22:46:01.212Z,2.90
2019-03-16T22:48:30.243Z,2.03
2019-03-16T22:50:59.278Z,2.37
2019-03-16T22:53:28.298Z,2.03
2019-03-16T22:55:57.331Z,2.20
2019-03-16T22:58:26.365Z,2.07
2019-03-16T23:00:55.570Z,2.90
2019-03-16T23:03:24.535Z,2.17
2019-03-16T23:05:53.627Z,1.90
2019-03-16T23:08:22.755Z,1.93
2019-03-16T23:10:51.816Z,1.83
2019-03-16T23:13:20.819Z,2.20
2019-03-16T23:15:49.900Z,2.40
2019-03-16T23:18:19.807Z,2.10
2019-03-16T23:20:48.938Z,1.90
2019-03-16T23:23:18.021Z,2.30
2019-03-16T23:25:47.232Z,2.03
2019-03-16T23:28:16.258Z,2.20
2019-03-16T23:30:45.350Z,3.03
2019-03-16T23:33:14.490Z,2.13
2019-03-16T23:35:43.596Z,3.93
2019-03-16T23:38:12.709Z,3.03
2019-03-16T23:40:41.784Z,2.07
2019-03-16T23:43:10.837Z,2.87
2019-03-16T23:45:39.910Z,1.90
2019-03-16T23:48:10.009Z,1.93
2019-03-16T23:50:39.075Z,2.67
2019-03-16T23:53:08.318Z,1.70
2019-03-16T23:55:37.334Z,1.93
2019-03-16T23:58:06.328Z,3.37
